Time;durP1;ratioP1;P1;durP2;ratioP2;P2;SDS_P1;SDS_P2;PMS_P1;PMS_P2;Temp;Humidity;BMP_temperature;BMP_pressure;BME280_temperature;BME280_humidity;BME280_pressure;Samples;Min_cycle;Max_cycle;Signal;HPM_P1;HPM_P2
2021/09/19 00:01:43;;;;;;;5.95;5.35;;;15.60;99.90;;;;;;5111302;28;20030;-36
2021/09/19 00:04:08;;;;;;;5.20;4.70;;;15.60;99.90;;;;;;5110809;28;20030;-37
2021/09/19 00:06:34;;;;;;;6.05;5.22;;;15.60;99.90;;;;;;5111245;28;20016;-36
2021/09/19 00:08:59;;;;;;;5.63;5.18;;;15.60;99.90;;;;;;5110531;28;20032;-36
2021/09/19 00:11:31;;;;;;;6.65;5.65;;;15.60;99.90;;;;;;5110112;28;20208;-36
2021/09/19 00:13:57;;;;;;;5.80;5.17;;;15.50;99.90;;;;;;5108739;28;20035;-34
2021/09/19 00:16:22;;;;;;;6.90;6.22;;;15.50;99.90;;;;;;5109293;28;20342;-34
2021/09/19 00:18:48;;;;;;;6.60;5.50;;;15.50;99.90;;;;;;5110793;28;20487;-36
2021/09/19 00:21:14;;;;;;;6.40;5.80;;;15.50;99.90;;;;;;5110784;28;20551;-37
2021/09/19 00:23:39;;;;;;;6.50;5.90;;;15.50;99.90;;;;;;5111634;28;20030;-38
2021/09/19 00:26:05;;;;;;;6.50;5.90;;;15.50;99.90;;;;;;5110922;28;20618;-35
2021/09/19 00:28:30;;;;;;;6.57;5.88;;;15.50;99.90;;;;;;5110413;28;20364;-35
2021/09/19 00:30:56;;;;;;;6.60;6.00;;;15.40;99.90;;;;;;5110161;28;20488;-38
2021/09/19 00:33:21;;;;;;;6.57;5.97;;;15.40;99.90;;;;;;5111311;28;20028;-36
2021/09/19 00:35:47;;;;;;;6.53;5.85;;;15.40;99.90;;;;;;5109820;28;20023;-39
2021/09/19 00:38:13;;;;;;;6.20;5.57;;;15.40;99.90;;;;;;5111325;28;20486;-37
2021/09/19 00:40:38;;;;;;;6.88;6.18;;;15.40;99.90;;;;;;5110731;28;20042;-40
2021/09/19 00:43:05;;;;;;;6.75;6.03;;;15.40;99.90;;;;;;5110220;28;20119;-37
2021/09/19 00:45:30;;;;;;;6.40;5.80;;;15.40;99.90;;;;;;5110991;28;20019;-34
2021/09/19 00:47:59;;;;;;;6.85;6.15;;;15.40;99.90;;;;;;5109794;28;20406;-37
2021/09/19 00:50:25;;;;;;;6.35;5.72;;;15.30;99.90;;;;;;5108823;28;20098;-37
2021/09/19 00:52:52;;;;;;;5.90;5.30;;;15.30;99.90;;;;;;5108185;28;20522;-35
2021/09/19 00:55:20;;;;;;;5.88;5.30;;;15.30;99.90;;;;;;5108620;28;20027;-36
2021/09/19 00:57:51;;;;;;;7.82;6.32;;;15.30;99.90;;;;;;5106572;28;20024;-39
2021/09/19 01:00:20;;;;;;;10.10;6.80;;;15.30;99.90;;;;;;5110237;28;20597;-39
2021/09/19 01:02:46;;;;;;;6.82;6.20;;;15.30;99.90;;;;;;5107345;28;20020;-35
2021/09/19 01:05:13;;;;;;;6.68;6.07;;;15.30;99.90;;;;;;5108866;28;20087;-39
2021/09/19 01:07:40;;;;;;;7.80;7.00;;;15.30;99.90;;;;;;5108017;28;20566;-39
2021/09/19 01:10:06;;;;;;;7.63;6.70;;;15.30;99.90;;;;;;5108049;28;20040;-37
2021/09/19 01:12:32;;;;;;;7.13;6.53;;;15.20;99.90;;;;;;5108844;28;20486;-36
2021/09/19 01:14:59;;;;;;;7.35;6.65;;;15.30;99.90;;;;;;5108019;28;20039;-35
2021/09/19 01:17:25;;;;;;;7.18;5.95;;;15.30;99.90;;;;;;5109560;28;20428;-37
2021/09/19 01:19:52;;;;;;;7.53;6.82;;;15.30;99.90;;;;;;5109979;28;20045;-39
2021/09/19 01:22:29;;;;;;;8.02;7.00;;;15.20;99.90;;;;;;5109998;28;20024;-37
2021/09/19 01:24:58;;;;;;;8.85;8.05;;;15.20;99.90;;;;;;5109590;28;20077;-35
2021/09/19 01:27:23;;;;;;;7.75;7.05;;;15.20;99.90;;;;;;5109811;28;20070;-38
2021/09/19 01:29:49;;;;;;;7.60;6.90;;;15.20;99.90;;;;;;5109245;28;20055;-36
2021/09/19 01:32:18;;;;;;;9.88;8.07;;;15.10;99.90;;;;;;5109758;28;20020;-38
2021/09/19 01:34:44;;;;;;;8.38;7.53;;;15.10;99.90;;;;;;5109860;28;20479;-40
2021/09/19 01:37:12;;;;;;;6.78;6.18;;;15.10;99.90;;;;;;5110041;28;20122;-37
2021/09/19 01:39:37;;;;;;;7.90;7.10;;;15.10;99.90;;;;;;5109217;28;20053;-39
2021/09/19 01:42:03;;;;;;;8.07;7.28;;;15.10;99.90;;;;;;5110363;28;20023;-36
2021/09/19 01:44:28;;;;;;;7.60;6.90;;;15.10;99.90;;;;;;5113727;28;20012;-37
2021/09/19 01:46:57;;;;;;;7.85;7.15;;;15.10;99.90;;;;;;5114340;28;20471;-36
2021/09/19 01:49:25;;;;;;;10.35;8.85;;;15.10;99.90;;;;;;5114077;28;20102;-36
2021/09/19 01:51:50;;;;;;;8.32;7.53;;;15.10;99.90;;;;;;5113279;28;20824;-38
2021/09/19 01:54:16;;;;;;;7.85;7.15;;;15.10;99.90;;;;;;5113881;28;20031;-37
2021/09/19 01:56:42;;;;;;;9.18;8.20;;;15.00;99.90;;;;;;5114218;28;20020;-39
2021/09/19 01:59:07;;;;;;;8.82;7.80;;;15.00;99.90;;;;;;5112779;28;20016;-38
2021/09/19 02:01:33;;;;;;;9.45;8.13;;;15.00;99.90;;;;;;5113005;28;20027;-37
2021/09/19 02:03:58;;;;;;;8.90;8.00;;;15.00;99.90;;;;;;5111674;28;20691;-39
2021/09/19 02:06:24;;;;;;;9.07;8.27;;;14.90;99.90;;;;;;5111498;28;20024;-37
2021/09/19 02:08:50;;;;;;;8.73;7.85;;;14.90;99.90;;;;;;5112180;28;20420;-38
2021/09/19 02:11:17;;;;;;;8.13;7.32;;;14.90;99.90;;;;;;5113553;28;20568;-36
2021/09/19 02:13:43;;;;;;;9.52;8.45;;;14.90;99.90;;;;;;5112660;28;20016;-38
2021/09/19 02:16:10;;;;;;;8.90;8.10;;;14.90;99.90;;;;;;5112279;28;20032;-40
2021/09/19 02:18:35;;;;;;;9.23;8.32;;;14.80;99.90;;;;;;5112611;28;20023;-38
2021/09/19 02:21:03;;;;;;;9.00;7.90;;;14.90;99.90;;;;;;5111763;28;20345;-37
2021/09/19 02:23:30;;;;;;;8.48;7.68;;;14.90;99.90;;;;;;5113406;28;20062;-35
2021/09/19 02:25:55;;;;;;;9.77;8.85;;;14.80;99.90;;;;;;5113338;28;20019;-35
2021/09/19 02:28:21;;;;;;;9.45;8.50;;;14.90;99.90;;;;;;5113146;28;20082;-36
2021/09/19 02:30:49;;;;;;;8.68;7.90;;;14.90;99.90;;;;;;5105341;28;20107;-38
2021/09/19 02:33:15;;;;;;;9.40;8.50;;;14.80;99.90;;;;;;5112327;28;20076;-36
2021/09/19 02:35:41;;;;;;;9.15;8.27;;;14.90;99.90;;;;;;5110165;28;20019;-39
2021/09/19 02:38:06;;;;;;;9.48;8.57;;;14.80;99.90;;;;;;5110706;28;20490;-39
2021/09/19 02:40:32;;;;;;;9.45;8.55;;;14.80;99.90;;;;;;5111040;28;20433;-37
2021/09/19 02:42:58;;;;;;;9.60;8.65;;;14.80;99.90;;;;;;5110880;28;20038;-38
2021/09/19 02:45:24;;;;;;;10.10;8.73;;;14.80;99.90;;;;;;5111267;28;20020;-36
2021/09/19 02:47:49;;;;;;;9.40;8.50;;;14.80;99.90;;;;;;5110996;28;20035;-37
2021/09/19 02:50:18;;;;;;;11.25;8.88;;;14.90;99.90;;;;;;5113314;28;20024;-39
2021/09/19 02:52:44;;;;;;;9.95;8.95;;;14.80;99.90;;;;;;5112674;28;20475;-39
2021/09/19 02:55:11;;;;;;;9.80;8.90;;;14.90;99.90;;;;;;5110948;28;20032;-37
2021/09/19 02:57:37;;;;;;;9.90;8.95;;;14.80;99.90;;;;;;5111892;28;20050;-39
2021/09/19 03:00:11;;;;;;;10.40;9.43;;;14.80;99.90;;;;;;5112774;28;20470;-38
2021/09/19 03:02:37;;;;;;;9.48;8.38;;;14.80;99.90;;;;;;5112120;28;20027;-37
2021/09/19 03:05:04;;;;;;;10.40;9.30;;;14.70;99.90;;;;;;5112425;28;20007;-36
2021/09/19 03:07:29;;;;;;;9.15;8.32;;;14.80;99.90;;;;;;5112264;28;20122;-36
2021/09/19 03:09:55;;;;;;;9.70;8.30;;;14.70;99.90;;;;;;5109876;28;20560;-38
2021/09/19 03:12:20;;;;;;;8.70;7.90;;;14.70;99.90;;;;;;5111381;28;20019;-33
2021/09/19 03:14:48;;;;;;;10.80;9.80;;;14.70;99.90;;;;;;5110406;28;20024;-37
2021/09/19 03:17:13;;;;;;;11.23;10.13;;;14.70;99.90;;;;;;5109962;28;20031;-39
2021/09/19 03:19:39;;;;;;;12.23;9.43;;;14.70;99.90;;;;;;5110579;28;20317;-34
2021/09/19 03:22:05;;;;;;;11.60;10.35;;;14.70;99.90;;;;;;5110763;28;20038;-35
2021/09/19 03:24:30;;;;;;;9.88;8.98;;;14.70;99.90;;;;;;5110653;28;20106;-39
2021/09/19 03:26:56;;;;;;;11.02;9.93;;;14.70;99.90;;;;;;5110179;28;20360;-39
2021/09/19 03:29:21;;;;;;;10.02;9.13;;;14.80;99.90;;;;;;5112122;28;20043;-39
2021/09/19 03:31:47;;;;;;;10.27;9.27;;;14.80;99.90;;;;;;5111012;28;20008;-36
2021/09/19 03:34:13;;;;;;;10.52;9.52;;;14.80;99.90;;;;;;5112251;28;20130;-38
2021/09/19 03:36:38;;;;;;;10.57;9.55;;;14.80;99.90;;;;;;5111673;28;20019;-36
2021/09/19 03:39:07;;;;;;;11.00;9.90;;;14.80;99.90;;;;;;5111503;28;20035;-34
2021/09/19 03:41:33;;;;;;;10.73;9.68;;;14.90;99.90;;;;;;5111811;28;20012;-39
2021/09/19 03:43:59;;;;;;;15.32;10.32;;;14.80;99.90;;;;;;5110478;28;20073;-39
2021/09/19 03:46:26;;;;;;;11.77;10.57;;;14.80;99.90;;;;;;5112145;28;20103;-40
2021/09/19 03:48:52;;;;;;;11.43;10.27;;;14.80;99.90;;;;;;5111328;28;20088;-37
2021/09/19 03:51:17;;;;;;;10.73;9.63;;;14.70;99.90;;;;;;5111603;28;20012;-36
2021/09/19 03:53:44;;;;;;;11.38;10.38;;;14.70;99.90;;;;;;5111841;28;20072;-36
2021/09/19 03:56:09;;;;;;;11.00;9.93;;;14.70;99.90;;;;;;5111797;28;20077;-38
2021/09/19 03:58:35;;;;;;;12.05;10.68;;;14.70;99.90;;;;;;5110954;28;20474;-36
2021/09/19 04:01:00;;;;;;;10.18;9.18;;;14.70;99.90;;;;;;5111075;28;20022;-37
2021/09/19 04:03:26;;;;;;;11.32;10.15;;;14.70;99.90;;;;;;5111251;28;20069;-37
2021/09/19 04:05:52;;;;;;;11.45;10.25;;;14.70;99.90;;;;;;5069341;28;20077;-39
2021/09/19 04:08:17;;;;;;;11.40;10.25;;;14.60;99.90;;;;;;5099191;28;20061;-40
2021/09/19 04:10:43;;;;;;;11.45;10.18;;;14.60;99.90;;;;;;5111400;28;20027;-39
2021/09/19 04:13:08;;;;;;;10.27;9.27;;;14.60;99.90;;;;;;5110582;28;20023;-39
2021/09/19 04:15:34;;;;;;;10.45;9.40;;;14.60;99.90;;;;;;5111038;28;20039;-36
2021/09/19 04:17:59;;;;;;;10.32;9.32;;;14.60;99.90;;;;;;5109839;28;20486;-36
2021/09/19 04:20:25;;;;;;;9.55;8.55;;;14.70;99.90;;;;;;5108601;28;20653;-38
2021/09/19 04:22:50;;;;;;;12.48;9.68;;;14.60;99.90;;;;;;5109745;28;20106;-38
2021/09/19 04:25:16;;;;;;;12.35;10.40;;;14.60;99.90;;;;;;5110087;28;20020;-35
2021/09/19 04:27:41;;;;;;;10.95;9.85;;;14.60;99.90;;;;;;5108298;28;20118;-38
2021/09/19 04:30:08;;;;;;;12.65;11.35;;;14.60;99.90;;;;;;5109003;28;20081;-36
2021/09/19 04:32:35;;;;;;;11.52;10.43;;;14.60;99.90;;;;;;5110824;28;20015;-38
2021/09/19 04:35:00;;;;;;;10.73;9.73;;;14.50;99.90;;;;;;5109763;28;20039;-40
2021/09/19 04:37:27;;;;;;;10.10;9.10;;;14.50;99.90;;;;;;5110288;28;20024;-39
2021/09/19 04:39:52;;;;;;;10.00;9.00;;;14.50;99.90;;;;;;5109412;28;20371;-39
2021/09/19 04:42:18;;;;;;;10.70;8.90;;;14.50;99.90;;;;;;5110200;28;20502;-38
2021/09/19 04:44:46;;;;;;;10.48;9.40;;;14.50;99.90;;;;;;5109383;28;20158;-37
2021/09/19 04:47:14;;;;;;;11.00;9.90;;;14.50;99.90;;;;;;5110152;28;20494;-37
2021/09/19 04:49:40;;;;;;;11.50;10.35;;;14.50;99.90;;;;;;5110293;28;20054;-39
2021/09/19 04:52:06;;;;;;;9.70;8.80;;;14.40;99.90;;;;;;5110864;28;20063;-36
2021/09/19 04:54:32;;;;;;;11.23;9.98;;;14.40;99.90;;;;;;5108047;28;20044;-37
2021/09/19 04:56:58;;;;;;;10.45;9.35;;;14.40;99.90;;;;;;5109605;28;20028;-36
2021/09/19 04:59:24;;;;;;;10.30;9.25;;;14.40;99.90;;;;;;5111349;28;20107;-34
2021/09/19 05:01:50;;;;;;;9.77;8.77;;;14.40;99.90;;;;;;5109446;28;20115;-38
2021/09/19 05:04:15;;;;;;;9.38;8.48;;;14.40;99.90;;;;;;5110778;28;20073;-39
2021/09/19 05:06:41;;;;;;;9.40;8.50;;;14.40;99.90;;;;;;5109983;28;20514;-38
2021/09/19 05:09:06;;;;;;;10.23;9.10;;;14.40;99.90;;;;;;5109359;28;20035;-39
2021/09/19 05:11:38;;;;;;;10.90;9.85;;;14.30;99.90;;;;;;5110750;28;20082;-40
2021/09/19 05:14:03;;;;;;;10.45;9.38;;;14.40;99.90;;;;;;5110248;28;20274;-38
2021/09/19 05:16:29;;;;;;;10.35;9.20;;;14.30;99.90;;;;;;5102620;28;20474;-39
2021/09/19 05:18:57;;;;;;;10.45;9.45;;;14.30;99.90;;;;;;5110228;28;20028;-33
2021/09/19 05:21:25;;;;;;;9.23;8.30;;;14.20;99.90;;;;;;5109944;28;20059;-39
2021/09/19 05:23:51;;;;;;;8.82;8.02;;;14.20;99.90;;;;;;5109340;28;20036;-38
2021/09/19 05:26:16;;;;;;;10.80;9.70;;;14.10;99.90;;;;;;5091579;28;20127;-37
2021/09/19 05:28:42;;;;;;;10.00;9.07;;;14.10;99.90;;;;;;5107718;28;20036;-39
2021/09/19 05:31:08;;;;;;;9.85;8.85;;;14.10;99.90;;;;;;5106055;28;20026;-38
2021/09/19 05:33:34;;;;;;;9.27;8.27;;;14.00;99.90;;;;;;5106429;28;20621;-37
2021/09/19 05:35:59;;;;;;;9.55;8.65;;;14.00;99.90;;;;;;5107134;28;20103;-36
2021/09/19 05:38:25;;;;;;;10.40;9.27;;;14.00;99.90;;;;;;5107234;28;20027;-40
2021/09/19 05:40:50;;;;;;;10.18;9.07;;;14.00;99.90;;;;;;5106888;28;20053;-37
2021/09/19 05:43:16;;;;;;;9.80;8.80;;;14.00;99.90;;;;;;5107747;28;20128;-33
2021/09/19 05:45:42;;;;;;;10.73;9.73;;;13.90;99.90;;;;;;5109289;28;20011;-38
2021/09/19 05:48:07;;;;;;;11.02;8.98;;;13.90;99.90;;;;;;5108834;28;20454;-37
2021/09/19 05:50:33;;;;;;;9.18;8.35;;;13.90;99.90;;;;;;5107687;28;20027;-37
2021/09/19 05:52:58;;;;;;;10.18;8.77;;;13.90;99.90;;;;;;5107789;28;20024;-39
2021/09/19 05:55:24;;;;;;;10.35;9.30;;;13.90;99.90;;;;;;5109532;28;20027;-40
2021/09/19 05:57:50;;;;;;;10.85;8.93;;;13.90;99.90;;;;;;5108881;28;20059;-39
2021/09/19 06:00:15;;;;;;;8.75;7.82;;;13.90;99.90;;;;;;5109821;28;20027;-38
2021/09/19 06:02:41;;;;;;;9.57;8.63;;;13.90;99.90;;;;;;5109630;28;20027;-37
2021/09/19 06:05:07;;;;;;;9.80;8.88;;;13.90;99.90;;;;;;5109421;28;20085;-37
2021/09/19 06:07:33;;;;;;;10.82;9.73;;;13.90;99.90;;;;;;5109637;28;20039;-36
2021/09/19 06:09:59;;;;;;;10.13;9.02;;;13.90;99.90;;;;;;5109182;28;20031;-36
2021/09/19 06:12:24;;;;;;;11.02;9.63;;;13.90;99.90;;;;;;5109688;28;20016;-39
2021/09/19 06:14:50;;;;;;;10.52;9.40;;;13.90;99.90;;;;;;5108813;28;20062;-39
2021/09/19 06:17:16;;;;;;;10.65;9.55;;;13.90;99.90;;;;;;5109882;28;20452;-37
2021/09/19 06:19:42;;;;;;;11.15;10.05;;;13.90;99.90;;;;;;5109281;28;20080;-37
2021/09/19 06:22:07;;;;;;;10.35;9.35;;;13.90;99.90;;;;;;5109168;28;20016;-39
2021/09/19 06:24:33;;;;;;;10.77;9.68;;;13.90;99.90;;;;;;5110336;28;20024;-39
2021/09/19 06:27:00;;;;;;;10.45;9.45;;;13.90;99.90;;;;;;5108763;28;20012;-36
2021/09/19 06:29:26;;;;;;;12.27;10.48;;;13.90;99.90;;;;;;5111175;28;20114;-36
2021/09/19 06:31:52;;;;;;;11.07;9.85;;;13.90;99.90;;;;;;5112897;28;20094;-36
2021/09/19 06:34:17;;;;;;;9.80;8.82;;;13.90;99.90;;;;;;5112430;28;20027;-39
2021/09/19 06:36:43;;;;;;;10.80;9.63;;;13.90;99.90;;;;;;5111119;28;20160;-37
2021/09/19 06:39:09;;;;;;;9.73;8.70;;;13.90;99.90;;;;;;5089819;28;20030;-37
2021/09/19 06:41:35;;;;;;;9.38;8.45;;;14.00;99.90;;;;;;5080200;28;20039;-38
2021/09/19 06:44:00;;;;;;;9.20;8.30;;;14.00;99.90;;;;;;5107828;28;20027;-35
2021/09/19 06:46:29;;;;;;;8.82;7.93;;;14.00;99.90;;;;;;5108052;28;20030;-36
2021/09/19 06:48:56;;;;;;;9.85;8.85;;;14.00;99.90;;;;;;5109714;28;20035;-37
2021/09/19 06:51:25;;;;;;;10.35;8.80;;;14.00;99.90;;;;;;5111631;28;20019;-33
2021/09/19 06:53:51;;;;;;;10.38;9.38;;;14.10;99.90;;;;;;5110899;28;20032;-34
2021/09/19 06:56:17;;;;;;;10.00;8.65;;;14.10;99.90;;;;;;5112237;28;20509;-38
2021/09/19 06:58:42;;;;;;;9.68;8.68;;;14.20;99.90;;;;;;5111378;28;20073;-39
2021/09/19 07:01:08;;;;;;;10.52;8.70;;;14.20;99.90;;;;;;5110297;28;20108;-38
2021/09/19 07:03:34;;;;;;;11.05;8.68;;;14.30;99.90;;;;;;5112595;28;20027;-36
2021/09/19 07:06:00;;;;;;;9.52;8.57;;;14.30;99.90;;;;;;5110595;28;20027;-36
2021/09/19 07:08:26;;;;;;;10.90;9.80;;;14.30;99.90;;;;;;5111335;28;20073;-39
2021/09/19 07:10:51;;;;;;;9.82;8.75;;;14.40;99.90;;;;;;5110810;28;20016;-39
2021/09/19 07:13:21;;;;;;;10.13;9.13;;;14.40;99.90;;;;;;5111633;28;20020;-39
2021/09/19 07:15:52;;;;;;;10.52;9.38;;;14.40;99.90;;;;;;5110419;28;20040;-37
2021/09/19 07:18:20;;;;;;;10.68;8.80;;;14.40;99.90;;;;;;5111895;28;20047;-39
2021/09/19 07:20:46;;;;;;;10.48;9.25;;;14.40;99.90;;;;;;5110793;28;20069;-38
2021/09/19 07:23:11;;;;;;;10.15;9.15;;;14.40;99.90;;;;;;5109955;28;20023;-36
2021/09/19 07:25:37;;;;;;;9.20;8.30;;;14.40;99.90;;;;;;5111378;28;20047;-38
2021/09/19 07:28:04;;;;;;;9.90;8.90;;;14.50;99.90;;;;;;5111668;28;20360;-39
2021/09/19 07:30:30;;;;;;;12.82;8.82;;;14.50;99.90;;;;;;5110410;28;20107;-38
2021/09/19 07:32:56;;;;;;;9.75;8.75;;;14.60;99.90;;;;;;5111265;28;20034;-39
2021/09/19 07:35:22;;;;;;;10.98;9.55;;;14.70;99.90;;;;;;5111012;28;20016;-39
2021/09/19 07:37:48;;;;;;;12.75;9.50;;;14.70;99.90;;;;;;5110516;28;20032;-38
2021/09/19 07:40:14;;;;;;;9.60;8.63;;;14.70;99.90;;;;;;5111086;28;20019;-36
2021/09/19 07:42:40;;;;;;;9.98;7.78;;;14.70;99.90;;;;;;5111190;28;20483;-37
2021/09/19 07:45:07;;;;;;;8.38;7.45;;;14.80;99.90;;;;;;5108651;28;20474;-37
2021/09/19 07:47:33;;;;;;;8.77;7.97;;;14.80;99.90;;;;;;5109372;28;20032;-39
2021/09/19 07:49:59;;;;;;;9.13;8.07;;;14.90;99.90;;;;;;5109069;28;20049;-40
2021/09/19 07:52:26;;;;;;;8.15;7.38;;;14.90;99.90;;;;;;5108666;28;20110;-42
2021/09/19 07:54:54;;;;;;;8.93;7.75;;;15.00;99.90;;;;;;5109078;28;20015;-36
2021/09/19 07:57:23;;;;;;;8.68;7.60;;;15.00;99.90;;;;;;5088081;28;20016;-34
2021/09/19 07:59:53;;;;;;;7.78;7.07;;;15.10;99.90;;;;;;5108376;28;20490;-38
2021/09/19 08:02:21;;;;;;;7.93;7.13;;;15.10;99.90;;;;;;5109402;28;20111;-33
2021/09/19 08:04:47;;;;;;;8.73;7.82;;;15.20;99.90;;;;;;5108065;28;20115;-40
2021/09/19 08:07:12;;;;;;;9.02;8.13;;;15.30;99.90;;;;;;5102395;28;20136;-39
2021/09/19 08:09:38;;;;;;;9.23;7.43;;;15.30;99.90;;;;;;5110481;28;20069;-38
2021/09/19 08:12:05;;;;;;;7.90;7.20;;;15.30;99.90;;;;;;5108556;28;20077;-39
2021/09/19 08:14:30;;;;;;;7.78;6.88;;;15.40;99.90;;;;;;5110572;28;20050;-38
2021/09/19 08:16:57;;;;;;;7.80;7.00;;;15.40;99.90;;;;;;5109263;28;20558;-36
2021/09/19 08:19:24;;;;;;;7.38;6.68;;;15.40;99.90;;;;;;5110286;28;20028;-40
2021/09/19 08:21:49;;;;;;;8.10;6.55;;;15.50;99.90;;;;;;5109091;28;20015;-39
2021/09/19 08:24:16;;;;;;;7.30;6.63;;;15.60;99.90;;;;;;5110797;28;20535;-40
2021/09/19 08:26:42;;;;;;;6.40;5.90;;;15.60;99.90;;;;;;5110447;28;20015;-39
2021/09/19 08:29:09;;;;;;;6.35;5.75;;;15.70;99.90;;;;;;5111011;28;20039;-37
2021/09/19 08:31:35;;;;;;;6.55;5.95;;;15.80;99.90;;;;;;5111981;28;20020;-39
2021/09/19 08:34:01;;;;;;;6.30;5.70;;;15.80;99.90;;;;;;5109880;28;20419;-37
2021/09/19 08:36:26;;;;;;;6.43;5.68;;;15.90;99.90;;;;;;5107983;28;20032;-39
2021/09/19 08:38:53;;;;;;;5.13;4.72;;;15.90;99.90;;;;;;5083733;28;20082;-39
2021/09/19 08:41:19;;;;;;;5.97;5.47;;;16.00;99.90;;;;;;5086176;28;20381;-38
2021/09/19 08:43:48;;;;;;;6.35;5.75;;;16.10;99.90;;;;;;5096790;28;20447;-38
2021/09/19 08:46:24;;;;;;;5.97;5.32;;;16.10;99.90;;;;;;5082972;28;20031;-36
2021/09/19 08:48:50;;;;;;;6.18;5.57;;;16.20;99.90;;;;;;5085278;28;20032;-38
2021/09/19 08:51:16;;;;;;;6.03;5.53;;;16.20;99.90;;;;;;5090110;28;20534;-38
2021/09/19 08:53:45;;;;;;;6.65;6.05;;;16.20;99.90;;;;;;5082858;28;20446;-36
2021/09/19 08:56:11;;;;;;;7.30;6.38;;;16.30;99.90;;;;;;5079601;28;20035;-37
2021/09/19 08:58:38;;;;;;;6.43;5.82;;;16.40;99.90;;;;;;5086157;28;20119;-39
2021/09/19 09:01:04;;;;;;;5.82;5.32;;;16.50;99.90;;;;;;5087402;28;20279;-39
2021/09/19 09:03:30;;;;;;;4.63;4.22;;;16.50;99.90;;;;;;5085123;28;20506;-40
2021/09/19 09:06:02;;;;;;;5.20;4.70;;;16.60;99.90;;;;;;5076533;28;20793;-43
2021/09/19 09:08:32;;;;;;;5.20;4.80;;;16.60;99.90;;;;;;5081586;28;20363;-41
2021/09/19 09:11:04;;;;;;;5.25;4.75;;;16.70;99.90;;;;;;5083460;28;20012;-43
2021/09/19 09:13:31;;;;;;;4.60;4.20;;;16.70;99.90;;;;;;5100391;28;20019;-42
2021/09/19 09:16:05;;;;;;;5.00;4.50;;;16.80;99.90;;;;;;5081586;28;20036;-44
2021/09/19 09:18:52;;;;;;;4.93;4.53;;;16.80;99.90;;;;;;5095661;28;20020;-41
2021/09/19 09:21:20;;;;;;;4.25;3.85;;;16.90;99.90;;;;;;5100490;28;20043;-42
2021/09/19 09:23:48;;;;;;;5.03;4.53;;;16.90;99.90;;;;;;5097483;28;20051;-41
2021/09/19 09:26:24;;;;;;;5.00;4.28;;;17.00;99.90;;;;;;5087047;28;20096;-42
2021/09/19 09:28:57;;;;;;;5.13;4.57;;;17.00;99.90;;;;;;5079931;28;20043;-40
2021/09/19 09:31:25;;;;;;;4.72;4.32;;;17.10;99.90;;;;;;5081178;28;20375;-38
2021/09/19 09:34:00;;;;;;;4.47;4.07;;;17.10;99.90;;;;;;5089852;28;20133;-39
2021/09/19 09:36:39;;;;;;;4.78;4.38;;;17.20;99.90;;;;;;5083241;28;20012;-40
2021/09/19 09:39:24;;;;;;;5.20;4.70;;;17.20;99.90;;;;;;5094429;28;20058;-39
2021/09/19 09:41:51;;;;;;;5.32;4.80;;;17.30;99.90;;;;;;5093635;28;20027;-40
2021/09/19 09:44:36;;;;;;;5.40;4.90;;;17.40;99.90;;;;;;5073233;28;20058;-40
2021/09/19 09:47:05;;;;;;;4.75;4.35;;;17.40;99.90;;;;;;5079453;28;20061;-42
2021/09/19 09:49:44;;;;;;;4.70;4.30;;;17.50;99.90;;;;;;5082737;28;20028;-34
2021/09/19 09:52:34;;;;;;;4.70;4.30;;;17.60;99.90;;;;;;5078100;28;20111;-37
2021/09/19 09:55:08;;;;;;;4.50;4.10;;;17.60;99.90;;;;;;5084580;28;20031;-37
2021/09/19 09:57:36;;;;;;;4.68;4.28;;;17.70;99.90;;;;;;5082768;28;20024;-39
2021/09/19 10:00:04;;;;;;;5.07;4.20;;;17.80;99.90;;;;;;5088797;28;20364;-36
2021/09/19 10:02:31;;;;;;;4.22;3.83;;;17.80;99.90;;;;;;5105684;28;20016;-41
2021/09/19 10:04:58;;;;;;;4.05;3.65;;;17.90;99.90;;;;;;5094046;28;20130;-40
2021/09/19 10:07:24;;;;;;;4.05;3.65;;;17.90;99.90;;;;;;5101665;28;20050;-39
2021/09/19 10:09:50;;;;;;;4.15;3.75;;;18.00;99.90;;;;;;5088802;28;20429;-42
2021/09/19 10:12:20;;;;;;;3.80;3.50;;;18.00;99.90;;;;;;5097603;28;20028;-42
2021/09/19 10:14:49;;;;;;;3.45;3.15;;;18.10;99.90;;;;;;5096826;28;20015;-44
2021/09/19 10:17:16;;;;;;;2.78;2.58;;;18.10;99.90;;;;;;5107384;28;20480;-43
2021/09/19 10:19:43;;;;;;;2.83;2.63;;;18.10;99.90;;;;;;5096285;28;20076;-38
2021/09/19 10:22:09;;;;;;;2.60;2.40;;;18.20;99.90;;;;;;5081018;28;20112;-40
2021/09/19 10:24:37;;;;;;;2.60;2.40;;;18.20;99.90;;;;;;5075671;28;20558;-39
2021/09/19 10:27:14;;;;;;;2.17;2.08;;;18.20;99.90;;;;;;5086930;28;20024;-40
2021/09/19 10:29:40;;;;;;;3.25;2.22;;;18.30;99.90;;;;;;5090430;28;20052;-39
2021/09/19 10:32:32;;;;;;;3.08;2.78;;;18.30;99.90;;;;;;5105066;28;20048;-39
2021/09/19 10:34:58;;;;;;;3.00;2.80;;;18.40;99.90;;;;;;5077055;28;20427;-31
2021/09/19 10:38:00;;;;;;;3.35;2.63;;;18.40;99.90;;;;;;5108568;28;20024;-35
2021/09/19 10:40:33;;;;;;;2.85;2.50;;;18.40;99.90;;;;;;5085260;28;20692;-35
2021/09/19 10:42:59;;;;;;;2.72;2.53;;;18.40;99.90;;;;;;5110333;28;20031;-39
2021/09/19 10:45:37;;;;;;;2.65;2.42;;;18.50;99.90;;;;;;5109627;28;20430;-35
2021/09/19 10:48:26;;;;;;;3.20;2.30;;;18.50;99.90;;;;;;5111778;28;20035;-35
2021/09/19 10:51:04;;;;;;;2.80;2.28;;;18.60;99.90;;;;;;5111374;28;20038;-36
2021/09/19 10:53:30;;;;;;;2.63;2.42;;;18.70;99.90;;;;;;5111694;28;20027;-40
2021/09/19 10:56:03;;;;;;;2.50;2.30;;;18.70;99.90;;;;;;5106314;28;20050;-37
2021/09/19 10:58:31;;;;;;;3.20;2.00;;;18.70;99.90;;;;;;5092538;28;20031;-38
2021/09/19 11:01:08;;;;;;;2.88;2.30;;;18.80;99.90;;;;;;5111506;28;20028;-36
2021/09/19 11:03:33;;;;;;;2.38;2.17;;;18.90;99.90;;;;;;5090135;28;20034;-36
2021/09/19 11:05:59;;;;;;;1.92;1.80;;;18.90;99.90;;;;;;5110927;28;20106;-40
2021/09/19 11:08:24;;;;;;;2.35;2.15;;;18.90;99.90;;;;;;5109940;28;20509;-39
2021/09/19 11:10:50;;;;;;;2.10;2.00;;;19.00;99.90;;;;;;5095525;28;20078;-40
2021/09/19 11:13:29;;;;;;;2.13;2.03;;;19.00;99.90;;;;;;5110892;28;20019;-39
2021/09/19 11:16:33;;;;;;;2.50;2.30;;;19.00;99.90;;;;;;5108491;28;20039;-37
2021/09/19 11:19:02;;;;;;;2.33;2.10;;;19.10;99.90;;;;;;5085434;28;20109;-43
2021/09/19 11:21:35;;;;;;;2.38;2.17;;;19.10;99.90;;;;;;5083019;28;20077;-40
2021/09/19 11:24:12;;;;;;;2.30;2.08;;;19.20;99.90;;;;;;5087093;28;20032;-39
2021/09/19 11:26:45;;;;;;;2.20;2.00;;;19.30;99.90;;;;;;5081394;28;20028;-41
2021/09/19 11:29:29;;;;;;;;;;;19.40;99.90;;;;;;5085747;28;20043;-36
2021/09/19 11:31:57;;;;;;;2.00;1.80;;;19.50;99.90;;;;;;5091468;28;20564;-41
2021/09/19 11:34:24;;;;;;;2.03;1.90;;;19.60;99.90;;;;;;5109224;28;20167;-42
2021/09/19 11:36:56;;;;;;;2.15;1.85;;;19.80;99.90;;;;;;5110826;28;20019;-42
2021/09/19 11:39:22;;;;;;;2.20;2.00;;;19.90;99.90;;;;;;5104983;28;20474;-44
2021/09/19 11:41:51;;;;;;;1.90;1.80;;;20.00;99.90;;;;;;5110132;28;20038;-41
2021/09/19 11:44:18;;;;;;;2.05;1.95;;;20.20;99.90;;;;;;5086716;28;20168;-43
2021/09/19 11:46:48;;;;;;;1.80;1.70;;;20.30;99.90;;;;;;5069474;28;20017;-40
2021/09/19 11:49:15;;;;;;;1.52;1.42;;;20.50;99.90;;;;;;5105930;28;20062;-42
2021/09/19 11:51:41;;;;;;;2.15;1.40;;;20.50;99.90;;;;;;5110032;28;20016;-43
2021/09/19 11:54:11;;;;;;;1.30;1.20;;;20.50;99.90;;;;;;5109590;28;20028;-38
2021/09/19 11:56:40;;;;;;;2.28;1.50;;;20.60;99.90;;;;;;5070680;28;20020;-42
2021/09/19 11:59:09;;;;;;;1.50;1.40;;;20.60;99.90;;;;;;5100387;28;20057;-43
2021/09/19 12:01:34;;;;;;;1.75;1.65;;;20.60;99.90;;;;;;5087179;28;20032;-42
2021/09/19 12:04:07;;;;;;;2.65;2.10;;;20.60;99.90;;;;;;5094021;28;20038;-41
2021/09/19 12:06:33;;;;;;;1.90;1.80;;;20.60;99.90;;;;;;5107978;28;20023;-43
2021/09/19 12:08:59;;;;;;;2.10;1.75;;;20.60;99.90;;;;;;5106690;28;20524;-39
2021/09/19 12:11:38;;;;;;;1.63;1.52;;;20.70;99.90;;;;;;5108173;28;20019;-41
2021/09/19 12:14:20;;;;;;;1.92;1.65;;;20.80;99.90;;;;;;5108085;28;20019;-43
2021/09/19 12:17:01;;;;;;;1.70;1.55;;;20.80;99.90;;;;;;5106998;28;20074;-42
2021/09/19 12:19:28;;;;;;;1.90;1.80;;;20.90;99.80;;;;;;5106185;28;20016;-42
2021/09/19 12:22:07;;;;;;;2.38;2.17;;;20.90;99.50;;;;;;5107373;28;20024;-43
2021/09/19 12:24:37;;;;;;;2.17;1.73;;;20.90;98.80;;;;;;5106532;28;20019;-43
2021/09/19 12:27:18;;;;;;;1.73;1.63;;;20.80;98.60;;;;;;5106078;28;20024;-41
2021/09/19 12:30:01;;;;;;;2.90;2.22;;;20.70;98.60;;;;;;5107925;28;20039;-42
2021/09/19 12:32:33;;;;;;;2.65;2.45;;;20.70;98.70;;;;;;5109891;28;20622;-42
2021/09/19 12:35:15;;;;;;;4.30;2.40;;;20.50;98.60;;;;;;5110320;28;20031;-41
2021/09/19 12:37:44;;;;;;;2.30;2.10;;;20.50;98.80;;;;;;5111014;28;20604;-41
2021/09/19 12:40:18;;;;;;;2.38;2.17;;;20.50;98.60;;;;;;5109769;28;20024;-39
2021/09/19 12:42:44;;;;;;;2.40;2.20;;;20.50;98.80;;;;;;5110855;28;20534;-43
2021/09/19 12:45:12;;;;;;;1.70;1.60;;;20.60;98.80;;;;;;5110618;28;20023;-42
2021/09/19 12:47:38;;;;;;;2.22;1.92;;;20.70;98.70;;;;;;5109262;28;20039;-42